Time;durP1;ratioP1;P1;durP2;ratioP2;P2;SDS_P1;SDS_P2;PMS_P1;PMS_P2;Temp;Humidity;BMP_temperature;BMP_pressure;BME280_temperature;BME280_humidity;BME280_pressure;Samples;Min_cycle;Max_cycle;Signal;HPM_P1;HPM_P2
2020/12/08 00:01:37;;;;;;;29.33;20.50;;;;;1.40;99593.00;;;;10182154;28;20574;-78
2020/12/08 00:06:39;;;;;;;32.30;20.17;;;;;1.50;99592.00;;;;10148229;29;20215;-82
2020/12/08 00:11:41;;;;;;;28.93;18.87;;;;;1.60;99586.00;;;;10155098;29;20230;-80
2020/12/08 00:16:45;;;;;;;24.17;17.17;;;;;1.60;99594.00;;;;10166063;29;20598;-80
2020/12/08 00:21:48;;;;;;;24.10;16.67;;;;;1.60;99591.00;;;;10174467;29;20698;-79
2020/12/08 00:26:50;;;;;;;25.50;16.07;;;;;1.50;99587.00;;;;10147123;29;20313;-80
2020/12/08 00:31:54;;;;;;;24.10;16.60;;;;;1.40;99586.00;;;;10144484;29;20245;-79
2020/12/08 00:36:57;;;;;;;26.00;17.87;;;;;1.30;99584.00;;;;10152408;29;20241;-81
2020/12/08 00:41:59;;;;;;;28.53;17.67;;;;;1.20;99576.00;;;;10145882;29;20265;-81
2020/12/08 00:47:03;;;;;;;27.40;18.43;;;;;1.10;99572.00;;;;10184676;29;20243;-84
2020/12/08 00:52:05;;;;;;;26.53;18.00;;;;;1.00;99566.00;;;;10158517;29;20301;-79
2020/12/08 00:57:07;;;;;;;30.57;18.27;;;;;0.90;99573.00;;;;10147279;29;20769;-79
2020/12/08 01:02:12;;;;;;;28.27;17.67;;;;;0.70;99571.00;;;;10174253;29;20310;-90
2020/12/08 01:07:16;;;;;;;30.57;20.10;;;;;0.70;99571.00;;;;10165368;29;20285;-79
2020/12/08 01:12:18;;;;;;;30.00;21.47;;;;;0.70;99562.00;;;;10169138;29;20264;-79
2020/12/08 01:17:22;;;;;;;29.73;19.67;;;;;0.80;99569.00;;;;10154479;29;20313;-79
2020/12/08 01:22:25;;;;;;;31.67;22.13;;;;;0.90;99577.00;;;;10168297;29;20335;-79
2020/12/08 01:27:27;;;;;;;36.63;23.43;;;;;1.00;99569.00;;;;10139981;29;20239;-81
2020/12/08 01:32:29;;;;;;;37.00;23.13;;;;;1.00;99568.00;;;;10159570;29;20281;-80
2020/12/08 01:37:31;;;;;;;33.83;21.50;;;;;1.10;99562.00;;;;10174543;29;20202;-80
2020/12/08 01:42:33;;;;;;;32.30;21.23;;;;;1.10;99571.00;;;;10169350;29;20234;-80
2020/12/08 01:47:35;;;;;;;30.87;21.13;;;;;1.20;99573.00;;;;10162331;29;20257;-79
2020/12/08 01:52:37;;;;;;;29.47;20.13;;;;;1.20;99581.00;;;;10147466;29;20225;-79
2020/12/08 01:57:39;;;;;;;32.40;21.70;;;;;1.20;99586.00;;;;10141713;29;20226;-79
2020/12/08 02:02:42;;;;;;;31.83;20.50;;;;;1.20;99592.00;;;;10174294;29;20227;-85
2020/12/08 02:07:44;;;;;;;32.47;20.60;;;;;1.20;99590.00;;;;10155744;29;20365;-79
2020/12/08 02:12:47;;;;;;;32.60;21.20;;;;;1.20;99599.00;;;;10163112;29;20222;-79
2020/12/08 02:17:50;;;;;;;30.90;20.40;;;;;1.20;99592.00;;;;10145462;29;20210;-89
2020/12/08 02:22:58;;;;;;;28.67;19.60;;;;;1.20;99583.00;;;;10162075;29;20215;-78
2020/12/08 02:28:01;;;;;;;29.10;19.10;;;;;1.30;99592.00;;;;10149936;29;20712;-79
2020/12/08 02:33:03;;;;;;;28.17;20.20;;;;;1.30;99579.00;;;;10138175;29;20305;-79
2020/12/08 02:38:05;;;;;;;28.83;18.80;;;;;1.40;99587.00;;;;10149114;29;20202;-86
2020/12/08 02:43:07;;;;;;;30.10;19.93;;;;;1.40;99582.00;;;;10168428;29;20622;-81
2020/12/08 02:48:10;;;;;;;28.87;20.23;;;;;1.40;99597.00;;;;10168908;29;20737;-79
2020/12/08 02:53:12;;;;;;;33.17;20.77;;;;;1.40;99584.00;;;;10148986;29;20283;-83
2020/12/08 02:58:14;;;;;;;31.20;20.10;;;;;1.40;99578.00;;;;10146250;29;20957;-82
2020/12/08 03:03:16;;;;;;;29.80;19.50;;;;;1.40;99570.00;;;;10204731;29;20318;-89
2020/12/08 03:08:18;;;;;;;29.43;20.13;;;;;1.40;99568.00;;;;10165021;29;20253;-88
2020/12/08 03:13:20;;;;;;;27.40;19.03;;;;;1.40;99579.00;;;;10144574;29;20218;-79
2020/12/08 03:18:22;;;;;;;26.87;18.63;;;;;1.40;99586.00;;;;10159976;29;20274;-79
2020/12/08 03:23:24;;;;;;;25.80;18.93;;;;;1.40;99584.00;;;;10150895;29;20287;-79
2020/12/08 03:28:26;;;;;;;30.00;19.30;;;;;1.40;99589.00;;;;10163985;29;20257;-79
2020/12/08 03:33:28;;;;;;;26.87;18.90;;;;;1.40;99583.00;;;;10162274;29;20273;-80
2020/12/08 03:38:30;;;;;;;28.73;19.10;;;;;1.40;99579.00;;;;10148218;29;20717;-79
2020/12/08 03:43:34;;;;;;;27.97;18.40;;;;;1.30;99576.00;;;;10153229;29;20274;-79
2020/12/08 03:48:36;;;;;;;34.83;21.33;;;;;1.30;99576.00;;;;10156917;29;20198;-79
2020/12/08 03:53:38;;;;;;;30.37;19.53;;;;;1.30;99575.00;;;;10153034;29;20309;-80
2020/12/08 03:58:41;;;;;;;26.93;17.93;;;;;1.20;99583.00;;;;10159016;29;20191;-79
2020/12/08 04:03:45;;;;;;;25.67;18.63;;;;;1.20;99584.00;;;;10173809;29;20297;-89
2020/12/08 04:08:48;;;;;;;30.57;20.53;;;;;1.20;99589.00;;;;10165625;29;20202;-79
2020/12/08 04:13:50;;;;;;;27.60;19.47;;;;;1.20;99589.00;;;;10178678;29;20271;-89
2020/12/08 04:18:52;;;;;;;28.73;19.37;;;;;1.10;99594.00;;;;10152707;29;20527;-79
2020/12/08 04:23:59;;;;;;;27.27;18.23;;;;;1.10;99593.00;;;;10174305;29;20239;-81
2020/12/08 04:29:02;;;;;;;32.00;20.20;;;;;1.10;99590.00;;;;10153738;29;20294;-80
2020/12/08 04:34:04;;;;;;;29.40;20.27;;;;;1.00;99596.00;;;;10151651;29;20250;-79
2020/12/08 04:39:06;;;;;;;29.50;18.93;;;;;0.90;99601.00;;;;10180722;29;20245;-80
2020/12/08 04:44:10;;;;;;;28.47;18.97;;;;;0.90;99603.00;;;;10152147;29;20274;-84
2020/12/08 04:49:13;;;;;;;29.60;18.80;;;;;0.80;99609.00;;;;10164806;29;20191;-78
2020/12/08 04:54:15;;;;;;;31.40;20.40;;;;;0.80;99611.00;;;;10169719;29;20302;-86
2020/12/08 04:59:22;;;;;;;28.23;19.30;;;;;0.80;99613.00;;;;10162802;29;20226;-79
2020/12/08 05:04:25;;;;;;;29.57;19.50;;;;;0.80;99611.00;;;;10159266;29;20222;-79
2020/12/08 05:09:27;;;;;;;26.63;19.33;;;;;0.80;99616.00;;;;10143225;29;20274;-82
2020/12/08 05:14:29;;;;;;;32.73;20.70;;;;;0.70;99615.00;;;;10166209;29;20231;-79
2020/12/08 05:19:31;;;;;;;29.57;21.33;;;;;0.70;99622.00;;;;10155640;29;20250;-80
2020/12/08 05:24:34;;;;;;;33.37;21.93;;;;;0.70;99621.00;;;;10156161;29;20245;-85
2020/12/08 05:29:37;;;;;;;32.87;21.43;;;;;0.70;99626.00;;;;10164509;29;20223;-80
2020/12/08 05:34:43;;;;;;;29.83;19.27;;;;;0.70;99641.00;;;;10137890;29;20300;-80
2020/12/08 05:39:46;;;;;;;33.53;20.97;;;;;0.70;99631.00;;;;10156883;29;20328;-88
2020/12/08 05:44:51;;;;;;;30.33;18.63;;;;;0.60;99645.00;;;;10160059;29;20720;-89
2020/12/08 05:50:02;;;;;;;30.63;19.80;;;;;0.60;99633.00;;;;10172679;29;20238;-79
2020/12/08 05:55:08;;;;;;;26.90;17.87;;;;;0.50;99640.00;;;;10141550;29;20269;-84
2020/12/08 06:00:26;;;;;;;33.00;20.37;;;;;0.30;99656.00;;;;10157719;29;20297;-80
2020/12/08 06:05:30;;;;;;;33.23;20.80;;;;;0.30;99659.00;;;;10157274;29;20227;-82
2020/12/08 06:10:46;;;;;;;29.60;19.43;;;;;0.10;99650.00;;;;10138178;29;20313;-79
2020/12/08 06:15:48;;;;;;;36.20;21.07;;;;;0.00;99664.00;;;;10171202;29;20210;-78
2020/12/08 06:20:50;;;;;;;30.93;20.07;;;;;0.00;99655.00;;;;10154348;29;20227;-79
2020/12/08 06:25:58;;;;;;;31.47;20.67;;;;;-0.10;99655.00;;;;10181343;29;20281;-86
2020/12/08 06:31:08;;;;;;;30.00;19.57;;;;;-0.20;99668.00;;;;10145068;29;20222;-80
2020/12/08 06:36:10;;;;;;;30.23;18.13;;;;;-0.30;99665.00;;;;10150280;29;20881;-84
2020/12/08 06:41:12;;;;;;;32.20;19.73;;;;;-0.30;99660.00;;;;10169710;29;20850;-78
2020/12/08 06:46:14;;;;;;;35.03;21.83;;;;;-0.40;99662.00;;;;10188402;29;20709;-90
2020/12/08 06:51:17;;;;;;;33.50;19.47;;;;;-0.50;99664.00;;;;10161793;29;20265;-79
2020/12/08 06:56:29;;;;;;;33.77;20.87;;;;;-0.60;99668.00;;;;10185710;29;20223;-80
2020/12/08 07:01:31;;;;;;;31.53;20.77;;;;;-0.60;99674.00;;;;10178923;29;20226;-88
2020/12/08 07:06:34;;;;;;;34.20;22.13;;;;;-0.70;99679.00;;;;10154920;29;20261;-81
2020/12/08 07:11:36;;;;;;;36.13;20.93;;;;;-0.80;99688.00;;;;10161287;29;20223;-79
2020/12/08 07:16:40;;;;;;;31.63;20.97;;;;;-0.90;99695.00;;;;10173819;29;20194;-85
2020/12/08 07:21:58;;;;;;;39.17;23.53;;;;;-0.90;99709.00;;;;10144258;29;20625;-80
2020/12/08 07:27:01;;;;;;;35.73;21.63;;;;;-0.90;99712.00;;;;10179577;29;20226;-90
2020/12/08 07:32:03;;;;;;;30.43;20.47;;;;;-0.90;99724.00;;;;10163289;29;20225;-88
2020/12/08 07:37:15;;;;;;;34.43;20.33;;;;;-0.90;99728.00;;;;10172170;29;20198;-84
2020/12/08 07:42:17;;;;;;;33.83;21.10;;;;;-0.80;99721.00;;;;10165551;29;20627;-82
2020/12/08 07:47:19;;;;;;;32.27;21.27;;;;;-0.80;99729.00;;;;10149581;29;20776;-82
2020/12/08 07:52:24;;;;;;;39.73;22.57;;;;;-0.70;99737.00;;;;10159299;29;20218;-89
2020/12/08 07:57:26;;;;;;;37.60;21.93;;;;;-0.60;99728.00;;;;10156016;29;20206;-89
2020/12/08 08:02:30;;;;;;;38.03;23.17;;;;;-0.40;99727.00;;;;10152943;29;20222;-79
2020/12/08 08:07:32;;;;;;;34.57;21.87;;;;;-0.20;99739.00;;;;10175466;29;20219;-90
2020/12/08 08:12:38;;;;;;;37.53;22.17;;;;;0.00;99733.00;;;;10161074;29;20254;-82
2020/12/08 08:17:40;;;;;;;37.97;22.23;;;;;0.20;99750.00;;;;10184101;29;20674;-83
2020/12/08 08:22:47;;;;;;;35.30;22.63;;;;;0.30;99745.00;;;;10187057;29;20222;-82
2020/12/08 08:27:50;;;;;;;40.50;22.93;;;;;0.50;99753.00;;;;10165849;29;20219;-90
2020/12/08 08:32:52;;;;;;;38.57;24.23;;;;;0.60;99752.00;;;;10163333;29;20223;-80
2020/12/08 08:37:54;;;;;;;41.47;25.30;;;;;0.70;99752.00;;;;10173637;29;20619;-84
2020/12/08 08:42:57;;;;;;;37.77;22.97;;;;;0.90;99751.00;;;;10171548;29;20234;-90
2020/12/08 08:47:59;;;;;;;35.03;22.07;;;;;1.00;99756.00;;;;10153666;29;20322;-90
2020/12/08 08:53:02;;;;;;;36.80;23.67;;;;;1.20;99753.00;;;;10189545;29;20229;-80
2020/12/08 08:58:13;;;;;;;38.07;22.97;;;;;1.50;99760.00;;;;10169089;29;20218;-82
2020/12/08 09:03:18;;;;;;;35.70;21.73;;;;;1.80;99759.00;;;;10186587;29;20226;-79
2020/12/08 09:08:24;;;;;;;31.87;20.03;;;;;1.80;99767.00;;;;10145860;29;20713;-88
2020/12/08 09:13:27;;;;;;;29.10;19.13;;;;;1.70;99768.00;;;;10160979;29;20223;-87
2020/12/08 09:18:29;;;;;;;26.33;19.07;;;;;1.70;99776.00;;;;10157031;29;20223;-79
2020/12/08 09:23:32;;;;;;;28.20;17.47;;;;;1.70;99768.00;;;;10138728;29;20683;-89
2020/12/08 09:28:34;;;;;;;29.83;19.30;;;;;1.90;99779.00;;;;10154976;29;20226;-79
2020/12/08 09:33:38;;;;;;;33.87;22.27;;;;;2.10;99782.00;;;;10138390;29;20222;-78
2020/12/08 09:38:40;;;;;;;34.10;22.90;;;;;2.30;99774.00;;;;10153112;29;20277;-88
2020/12/08 09:43:42;;;;;;;38.07;25.50;;;;;2.50;99787.00;;;;10157906;29;20241;-83
2020/12/08 09:48:44;;;;;;;38.63;23.37;;;;;2.50;99792.00;;;;10158040;29;20261;-88
2020/12/08 09:53:48;;;;;;;38.80;25.53;;;;;2.80;99791.00;;;;10165502;29;20218;-89
2020/12/08 09:58:53;;;;;;;29.20;19.50;;;;;2.90;99788.00;;;;10152761;29;20210;-88
2020/12/08 10:04:03;;;;;;;34.63;21.53;;;;;3.40;99795.00;;;;10161145;29;20666;-90
2020/12/08 10:09:05;;;;;;;26.13;18.17;;;;;3.60;99797.00;;;;10166803;29;20669;-89
2020/12/08 10:14:08;;;;;;;25.43;17.73;;;;;4.20;99789.00;;;;10165506;29;20223;-90
2020/12/08 10:19:10;;;;;;;24.87;16.13;;;;;4.70;99786.00;;;;10125385;29;20198;-88
2020/12/08 10:24:12;;;;;;;19.07;15.17;;;;;4.90;99786.00;;;;10147966;29;20203;-90
2020/12/08 10:29:16;;;;;;;19.20;14.23;;;;;4.80;99793.00;;;;10146708;29;20262;-78
2020/12/08 10:34:19;;;;;;;21.30;14.93;;;;;4.70;99797.00;;;;10144477;29;20229;-80
2020/12/08 10:39:21;;;;;;;20.50;15.47;;;;;4.50;99801.00;;;;10166033;29;20290;-78
2020/12/08 10:44:23;;;;;;;24.30;16.20;;;;;4.40;99793.00;;;;10151340;29;20324;-81
2020/12/08 10:49:26;;;;;;;22.40;17.27;;;;;4.10;99794.00;;;;10182967;29;20243;-81
2020/12/08 10:54:29;;;;;;;28.20;16.73;;;;;3.90;99791.00;;;;10174736;29;20198;-84
2020/12/08 10:59:31;;;;;;;26.13;16.00;;;;;3.70;99801.00;;;;10214445;29;20243;-86
2020/12/08 11:04:36;;;;;;;24.27;17.83;;;;;3.60;99802.00;;;;10167766;29;20313;-82
2020/12/08 11:09:38;;;;;;;21.23;16.73;;;;;3.50;99796.00;;;;10149409;29;20227;-78
2020/12/08 11:14:41;;;;;;;25.17;16.90;;;;;3.50;99799.00;;;;10171832;29;20750;-88
2020/12/08 11:19:47;;;;;;;25.40;17.97;;;;;3.60;99789.00;;;;10146969;29;20237;-85
2020/12/08 11:24:49;;;;;;;24.07;16.97;;;;;3.70;99791.00;;;;10150106;29;20230;-77
2020/12/08 11:29:51;;;;;;;26.73;18.77;;;;;3.80;99791.00;;;;10154601;29;20222;-77
2020/12/08 11:34:59;;;;;;;26.53;18.50;;;;;4.00;99778.00;;;;10188978;29;20207;-78
2020/12/08 11:40:03;;;;;;;28.40;18.33;;;;;4.30;99783.00;;;;10170849;29;20309;-87
2020/12/08 11:45:05;;;;;;;25.27;17.13;;;;;4.70;99776.00;;;;10183215;29;20233;-80
2020/12/08 11:50:08;;;;;;;25.20;17.73;;;;;5.10;99779.00;;;;10182244;29;20230;-77
2020/12/08 11:55:11;;;;;;;24.87;17.37;;;;;5.80;99780.00;;;;10178184;29;20201;-86
2020/12/08 12:00:16;;;;;;;23.07;16.50;;;;;6.30;99780.00;;;;10168080;29;20233;-78
2020/12/08 12:05:18;;;;;;;23.67;15.50;;;;;6.70;99779.00;;;;10185631;29;20225;-83
2020/12/08 12:10:20;;;;;;;20.57;15.30;;;;;6.80;99781.00;;;;10207239;29;20222;-84
2020/12/08 12:15:22;;;;;;;18.03;14.33;;;;;5.80;99788.00;;;;10198485;29;20254;-88
2020/12/08 12:20:24;;;;;;;19.87;14.13;;;;;5.20;99779.00;;;;10177592;29;20226;-79
2020/12/08 12:25:27;;;;;;;22.10;15.77;;;;;4.90;99789.00;;;;10190159;29;20804;-88
2020/12/08 12:30:29;;;;;;;25.13;17.17;;;;;4.90;99786.00;;;;10185327;29;20229;-89
2020/12/08 12:35:31;;;;;;;23.83;15.47;;;;;5.70;99793.00;;;;10206273;29;20198;-78
2020/12/08 12:40:34;;;;;;;22.47;15.17;;;;;6.40;99788.00;;;;10150535;29;20277;-90
2020/12/08 12:45:36;;;;;;;23.60;16.03;;;;;7.00;99788.00;;;;10185694;29;20233;-77
2020/12/08 12:50:41;;;;;;;19.50;14.73;;;;;7.10;99795.00;;;;10181998;28;20238;-86
2020/12/08 12:55:43;;;;;;;21.03;15.07;;;;;6.70;99798.00;;;;10159395;29;20284;-85
2020/12/08 13:00:45;;;;;;;20.63;15.20;;;;;6.40;99799.00;;;;10153660;29;21034;-81
2020/12/08 13:06:03;;;;;;;24.63;16.13;;;;;6.00;99809.00;;;;10192519;29;20236;-91
2020/12/08 13:11:12;;;;;;;22.57;16.10;;;;;5.80;99806.00;;;;10187429;29;20232;-88
2020/12/08 13:16:15;;;;;;;22.80;17.07;;;;;6.10;99808.00;;;;10139406;29;20207;-86
2020/12/08 13:21:17;;;;;;;23.83;16.67;;;;;6.70;99819.00;;;;10154782;29;20354;-78
2020/12/08 13:26:20;;;;;;;27.43;17.17;;;;;6.60;99812.00;;;;10142246;29;20324;-81
2020/12/08 13:31:25;;;;;;;21.17;16.23;;;;;6.30;99821.00;;;;10149520;29;20227;-82
2020/12/08 13:36:30;;;;;;;21.97;16.13;;;;;6.40;99819.00;;;;10164148;29;20198;-80
2020/12/08 13:41:32;;;;;;;20.63;15.63;;;;;6.30;99818.00;;;;10159644;29;20227;-82
2020/12/08 13:46:34;;;;;;;23.47;16.30;;;;;6.30;99821.00;;;;10150198;29;20239;-79
2020/12/08 13:51:37;;;;;;;20.00;15.40;;;;;6.20;99826.00;;;;10174189;29;20214;-83
2020/12/08 13:56:39;;;;;;;21.13;14.80;;;;;6.00;99826.00;;;;10152225;29;20202;-81
2020/12/08 14:01:45;;;;;;;17.43;12.50;;;;;5.80;99813.00;;;;10145355;29;20225;-82
2020/12/08 14:06:49;;;;;;;19.40;13.30;;;;;5.60;99826.00;;;;10178165;29;20306;-82
2020/12/08 14:11:54;;;;;;;19.23;13.40;;;;;5.40;99836.00;;;;10178581;29;20228;-82
2020/12/08 14:17:00;;;;;;;22.30;13.57;;;;;5.20;99835.00;;;;10141846;29;20199;-82
2020/12/08 14:22:03;;;;;;;18.27;13.20;;;;;5.10;99847.00;;;;10160167;29;20825;-81
2020/12/08 14:27:05;;;;;;;22.93;14.13;;;;;4.90;99849.00;;;;10165382;29;20230;-82
2020/12/08 14:32:07;;;;;;;20.67;13.60;;;;;4.80;99854.00;;;;10176352;29;20230;-82
2020/12/08 14:37:10;;;;;;;19.97;14.83;;;;;4.70;99867.00;;;;10173882;29;20205;-81
2020/12/08 14:42:27;;;;;;;21.37;14.23;;;;;4.60;99865.00;;;;10160261;29;20229;-80
2020/12/08 14:47:30;;;;;;;19.57;14.07;;;;;4.50;99883.00;;;;10155602;29;20229;-79
2020/12/08 14:52:33;;;;;;;18.80;13.33;;;;;4.30;99882.00;;;;10158063;29;20312;-81
2020/12/08 14:57:36;;;;;;;21.93;14.33;;;;;4.30;99902.00;;;;10159977;29;20222;-80
2020/12/08 15:02:38;;;;;;;24.73;14.93;;;;;4.00;99900.00;;;;10178049;29;20222;-80
2020/12/08 15:07:40;;;;;;;22.97;14.70;;;;;3.90;99906.00;;;;10155918;29;20225;-82
2020/12/08 15:12:43;;;;;;;22.23;15.47;;;;;3.70;99909.00;;;;10194523;29;20229;-80
2020/12/08 15:17:45;;;;;;;23.03;15.70;;;;;3.40;99920.00;;;;10143304;29;20209;-84
2020/12/08 15:22:48;;;;;;;24.57;15.73;;;;;3.10;99915.00;;;;10161485;29;20743;-79
2020/12/08 15:27:50;;;;;;;27.10;16.23;;;;;2.90;99918.00;;;;10164358;29;20723;-81
2020/12/08 15:32:56;;;;;;;23.97;15.90;;;;;2.70;99931.00;;;;10166531;29;20278;-78
2020/12/08 15:37:58;;;;;;;26.73;17.97;;;;;2.50;99938.00;;;;10178291;29;20198;-79
2020/12/08 15:43:00;;;;;;;29.93;19.37;;;;;2.30;99939.00;;;;10135211;29;20215;-85
2020/12/08 15:48:03;;;;;;;30.53;20.57;;;;;2.20;99960.00;;;;10145097;29;20569;-84
2020/12/08 15:53:05;;;;;;;34.17;21.47;;;;;2.00;99973.00;;;;10158868;29;20919;-81
2020/12/08 15:58:08;;;;;;;37.00;22.47;;;;;1.80;99987.00;;;;10171622;29;20222;-81
2020/12/08 16:03:10;;;;;;;35.53;22.67;;;;;1.70;99990.00;;;;10155580;29;20226;-82
2020/12/08 16:08:12;;;;;;;39.63;26.23;;;;;1.60;100001.00;;;;10145478;29;20219;-82
2020/12/08 16:13:14;;;;;;;38.07;25.23;;;;;1.50;100001.00;;;;10145687;29;20371;-82
2020/12/08 16:18:17;;;;;;;40.13;23.67;;;;;1.40;100011.00;;;;10176161;29;20260;-84
2020/12/08 16:23:19;;;;;;;38.13;23.93;;;;;1.20;100017.00;;;;10171617;29;20242;-84
2020/12/08 16:28:24;;;;;;;38.40;23.93;;;;;1.00;100014.00;;;;10156482;29;20712;-82
2020/12/08 16:33:27;;;;;;;40.20;25.10;;;;;0.90;100029.00;;;;10158626;29;20243;-84
2020/12/08 16:38:29;;;;;;;45.97;25.20;;;;;0.80;100031.00;;;;10165633;29;20207;-81
2020/12/08 16:43:31;;;;;;;43.90;25.87;;;;;0.80;100029.00;;;;10179885;29;20226;-84
2020/12/08 16:48:34;;;;;;;52.47;30.10;;;;;0.70;100039.00;;;;10177717;29;20309;-85
2020/12/08 16:53:36;;;;;;;57.73;34.03;;;;;0.70;100050.00;;;;10165804;29;22512;-81
2020/12/08 16:58:38;;;;;;;54.13;35.10;;;;;0.60;100047.00;;;;10174280;29;20222;-85
2020/12/08 17:03:41;;;;;;;54.37;33.20;;;;;0.50;100061.00;;;;10174312;29;20232;-82
2020/12/08 17:08:43;;;;;;;47.30;30.93;;;;;0.50;100078.00;;;;10164810;29;20222;-83
2020/12/08 17:13:46;;;;;;;48.93;31.53;;;;;0.30;100084.00;;;;10140816;29;20314;-79
2020/12/08 17:18:49;;;;;;;52.70;30.87;;;;;0.20;100078.00;;;;10161276;29;20203;-80
2020/12/08 17:23:51;;;;;;;54.57;32.90;;;;;0.10;100082.00;;;;10166316;29;20229;-82
2020/12/08 17:28:53;;;;;;;53.37;30.80;;;;;0.00;100096.00;;;;10161195;29;20234;-86
2020/12/08 17:33:56;;;;;;;48.83;29.97;;;;;-0.10;100091.00;;;;10156848;29;20242;-82
2020/12/08 17:38:58;;;;;;;54.07;31.87;;;;;-0.20;100090.00;;;;10147682;29;20207;-83
2020/12/08 17:44:00;;;;;;;53.87;33.87;;;;;-0.30;100102.00;;;;10146639;29;20233;-80
2020/12/08 17:49:04;;;;;;;55.30;32.43;;;;;-0.30;100093.00;;;;10127793;23;20224;-76
2020/12/08 17:54:07;;;;;;;60.20;33.00;;;;;-0.30;100102.00;;;;10101960;29;20219;-77
2020/12/08 17:59:10;;;;;;;58.47;32.93;;;;;-0.20;100110.00;;;;10117098;29;20204;-76
2020/12/08 18:04:13;;;;;;;62.13;34.50;;;;;-0.20;100111.00;;;;10135718;29;20200;-77
2020/12/08 18:09:18;;;;;;;58.93;33.17;;;;;-0.40;100109.00;;;;10097516;29;20215;-75
2020/12/08 18:14:20;;;;;;;53.23;31.37;;;;;-0.50;100109.00;;;;10124583;29;20205;-75
2020/12/08 18:19:22;;;;;;;81.17;47.63;;;;;-0.50;100120.00;;;;10111342;29;20212;-76
2020/12/08 18:24:24;;;;;;;62.17;34.13;;;;;-0.60;100124.00;;;;10114796;29;20211;-77
2020/12/08 18:29:26;;;;;;;59.27;33.43;;;;;-0.70;100129.00;;;;10132336;29;20223;-75
2020/12/08 18:34:31;;;;;;;65.40;36.90;;;;;-0.70;100133.00;;;;10117241;29;20220;-76
2020/12/08 18:39:35;;;;;;;61.77;31.87;;;;;-0.80;100137.00;;;;10105447;29;20559;-76
2020/12/08 18:44:37;;;;;;;52.63;29.73;;;;;-0.80;100132.00;;;;10108219;29;20212;-75
2020/12/08 18:49:43;;;;;;;56.83;30.37;;;;;-0.90;100142.00;;;;10128373;29;20211;-76
2020/12/08 18:54:47;;;;;;;56.67;31.63;;;;;-1.00;100151.00;;;;10130023;29;20287;-76
2020/12/08 18:59:52;;;;;;;56.57;32.20;;;;;-1.00;100154.00;;;;10132119;29;20303;-76
2020/12/08 19:04:56;;;;;;;52.57;30.47;;;;;-1.10;100166.00;;;;10124927;29;20212;-76
2020/12/08 19:10:04;;;;;;;56.30;33.03;;;;;-1.10;100167.00;;;;10106976;29;20211;-76
2020/12/08 19:15:08;;;;;;;55.60;30.97;;;;;-1.10;100160.00;;;;10135926;29;20290;-76
2020/12/08 19:20:15;;;;;;;55.57;31.50;;;;;-1.20;100159.00;;;;10134033;29;20565;-76
2020/12/08 19:25:18;;;;;;;55.87;29.60;;;;;-1.20;100163.00;;;;10107402;29;20250;-77
2020/12/08 19:30:22;;;;;;;60.93;34.67;;;;;-1.20;100162.00;;;;10113300;29;20220;-76
2020/12/08 19:35:24;;;;;;;65.43;36.43;;;;;-1.20;100165.00;;;;10127690;29;20678;-75
2020/12/08 19:40:27;;;;;;;75.27;41.63;;;;;-1.10;100174.00;;;;10089132;29;20687;-76
2020/12/08 19:45:30;;;;;;;82.07;48.23;;;;;-1.00;100189.00;;;;10129383;29;20220;-75
2020/12/08 19:50:33;;;;;;;71.03;39.37;;;;;-1.00;100187.00;;;;10102923;29;20203;-76
2020/12/08 19:55:35;;;;;;;74.13;41.90;;;;;-1.00;100188.00;;;;10131075;29;20247;-75
2020/12/08 20:00:38;;;;;;;76.00;43.13;;;;;-1.00;100188.00;;;;10124581;29;20221;-75
2020/12/08 20:05:40;;;;;;;81.83;45.90;;;;;-0.90;100207.00;;;;10115020;29;20304;-76
2020/12/08 20:10:42;;;;;;;79.07;43.30;;;;;-0.80;100212.00;;;;10116234;29;20212;-75
2020/12/08 20:15:44;;;;;;;108.60;60.70;;;;;-0.70;100210.00;;;;10124357;29;20207;-76
2020/12/08 20:20:47;;;;;;;101.63;64.13;;;;;-0.70;100216.00;;;;10134955;29;20224;-75
2020/12/08 20:25:50;;;;;;;77.73;39.80;;;;;-0.80;100219.00;;;;10107449;29;20227;-76
2020/12/08 20:30:52;;;;;;;79.30;40.13;;;;;-0.90;100224.00;;;;10122305;29;20735;-75
2020/12/08 20:35:55;;;;;;;79.57;43.50;;;;;-0.90;100234.00;;;;10117245;29;20279;-76
2020/12/08 20:40:57;;;;;;;65.07;40.33;;;;;-1.00;100239.00;;;;10136580;29;20231;-77
2020/12/08 20:46:00;;;;;;;65.50;38.90;;;;;-1.20;100243.00;;;;10113621;29;20314;-75
2020/12/08 20:51:02;;;;;;;66.17;38.97;;;;;-1.30;100250.00;;;;10121723;29;20230;-76
2020/12/08 20:56:04;;;;;;;66.10;35.53;;;;;-1.40;100253.00;;;;10112767;29;20212;-70
2020/12/08 21:01:08;;;;;;;68.47;38.67;;;;;-1.40;100243.00;;;;10124921;29;20220;-70
2020/12/08 21:06:13;;;;;;;73.33;40.30;;;;;-1.20;100246.00;;;;10129774;29;20226;-70
2020/12/08 21:11:16;;;;;;;89.70;44.87;;;;;-1.10;100243.00;;;;10107732;29;20224;-70
2020/12/08 21:16:22;;;;;;;87.93;45.47;;;;;-0.90;100251.00;;;;10087619;29;20290;-70
2020/12/08 21:21:26;;;;;;;88.67;46.87;;;;;-0.80;100251.00;;;;10111331;29;20306;-70
2020/12/08 21:26:28;;;;;;;89.47;48.00;;;;;-0.80;100246.00;;;;10117333;29;20235;-69
2020/12/08 21:31:30;;;;;;;87.30;46.87;;;;;-0.90;100250.00;;;;10126287;29;20667;-70
2020/12/08 21:36:33;;;;;;;83.83;45.60;;;;;-0.90;100251.00;;;;10110451;29;20557;-71
2020/12/08 21:41:38;;;;;;;77.73;43.03;;;;;-1.00;100256.00;;;;10130646;29;20276;-69
2020/12/08 21:46:41;;;;;;;80.13;41.83;;;;;-1.10;100255.00;;;;10121054;29;20279;-70
2020/12/08 21:51:44;;;;;;;73.30;40.83;;;;;-1.10;100263.00;;;;10113095;29;20231;-69
2020/12/08 21:56:47;;;;;;;83.83;44.83;;;;;-1.10;100272.00;;;;10112342;29;20214;-71
2020/12/08 22:01:49;;;;;;;83.40;42.13;;;;;-1.00;100274.00;;;;10130620;29;20299;-70
2020/12/08 22:06:52;;;;;;;72.60;40.87;;;;;-1.10;100281.00;;;;10122349;29;20231;-70
2020/12/08 22:11:58;;;;;;;69.50;40.63;;;;;-1.20;100291.00;;;;10123903;29;20733;-70
2020/12/08 22:17:00;;;;;;;70.27;40.97;;;;;-1.40;100301.00;;;;10091890;29;20208;-70
2020/12/08 22:22:04;;;;;;;70.13;40.80;;;;;-1.40;100294.00;;;;10118439;29;20204;-69
2020/12/08 22:27:06;;;;;;;74.73;40.63;;;;;-1.50;100289.00;;;;10108010;29;20232;-70
2020/12/08 22:32:09;;;;;;;68.53;38.60;;;;;-1.50;100293.00;;;;10128593;29;20292;-69
2020/12/08 22:37:11;;;;;;;82.73;44.00;;;;;-1.50;100283.00;;;;10125428;29;20203;-69
2020/12/08 22:42:14;;;;;;;86.20;41.97;;;;;-1.40;100283.00;;;;10168764;23;20566;-87
2020/12/08 22:47:16;;;;;;;82.53;41.83;;;;;-1.40;100291.00;;;;10144837;29;20722;-86
2020/12/08 22:52:18;;;;;;;87.33;43.63;;;;;-1.50;100284.00;;;;10145494;29;20298;-87
2020/12/08 22:57:21;;;;;;;71.97;40.03;;;;;-1.60;100295.00;;;;10136808;29;20547;-87
2020/12/08 23:02:23;;;;;;;85.87;42.17;;;;;-1.60;100300.00;;;;10171896;29;20203;-86
2020/12/08 23:07:25;;;;;;;84.13;41.97;;;;;-1.60;100309.00;;;;10139580;29;20684;-87
2020/12/08 23:12:27;;;;;;;103.10;47.67;;;;;-1.50;100314.00;;;;10144247;29;20298;-87
2020/12/08 23:17:30;;;;;;;100.87;50.10;;;;;-1.30;100318.00;;;;10150652;29;20790;-86
2020/12/08 23:22:32;;;;;;;97.63;46.43;;;;;-1.10;100314.00;;;;10164642;29;20203;-85
2020/12/08 23:27:35;;;;;;;96.00;44.43;;;;;-1.00;100309.00;;;;10152877;29;20321;-85
2020/12/08 23:32:37;;;;;;;90.33;44.63;;;;;-0.90;100316.00;;;;10142612;29;20285;-86
2020/12/08 23:37:41;;;;;;;88.23;44.57;;;;;-0.80;100334.00;;;;10155485;29;20219;-87
2020/12/08 23:42:43;;;;;;;92.87;46.67;;;;;-0.70;100351.00;;;;10141696;29;20722;-86
2020/12/08 23:47:46;;;;;;;103.13;51.20;;;;;-0.50;100357.00;;;;10146864;29;20338;-86
2020/12/08 23:52:48;;;;;;;110.93;55.43;;;;;-0.50;100365.00;;;;10145210;29;20199;-86
2020/12/08 23:57:50;;;;;;;104.10;49.87;;;;;-0.40;100362.00;;;;10151235;29;20715;-86
